Time;durP1;ratioP1;P1;durP2;ratioP2;P2;SDS_P1;SDS_P2;PMS_P1;PMS_P2;Temp;Humidity;BMP_temperature;BMP_pressure;BME280_temperature;BME280_humidity;BME280_pressure;Samples;Min_cycle;Max_cycle;Signal;HPM_P1;HPM_P2
2023/09/04 05:23:10;;;;;;;;;;;;;;;;;;;;;
2023/09/04 05:34:56;;;;;;;15.45;9.23;;;10.70;99.90;;;;;;5867954;24;20025;-87
2023/09/04 05:37:52;;;;;;;16.20;9.00;;;10.50;99.90;;;;;;6030541;22;20023;-86
2023/09/04 05:40:36;;;;;;;16.55;9.48;;;10.30;99.90;;;;;;6333620;22;20032;-85
2023/09/04 05:43:07;;;;;;;16.95;9.50;;;12.30;99.90;;;;;;6338994;22;20466;-85
2023/09/04 05:45:39;;;;;;;15.10;9.38;;;11.00;99.90;;;;;;6312274;22;20042;-85
2023/09/04 05:48:06;;;;;;;16.80;10.23;;;12.10;99.90;;;;;;6338874;22;20083;-83
2023/09/04 05:50:43;;;;;;;17.92;11.10;;;11.20;99.90;;;;;;6310591;22;20044;-85
2023/09/04 05:53:09;;;;;;;19.38;11.32;;;11.30;99.90;;;;;;6339742;22;20030;-85
2023/09/04 05:55:42;;;;;;;21.77;12.73;;;12.40;99.90;;;;;;6310245;22;20007;-85
2023/09/04 05:58:17;;;;;;;19.38;12.55;;;11.50;99.90;;;;;;6311885;22;20450;-86
2023/09/04 06:00:42;;;;;;;21.60;12.35;;;11.60;99.90;;;;;;6311416;22;20011;-86
2023/09/04 06:03:09;;;;;;;18.42;11.25;;;11.70;99.90;;;;;;6311111;22;20045;-87
2023/09/04 06:05:48;;;;;;;19.67;12.25;;;12.10;99.90;;;;;;6311462;22;20335;-87
2023/09/04 06:08:15;;;;;;;20.17;11.75;;;11.80;99.90;;;;;;6311458;22;20384;-87
2023/09/04 06:10:40;;;;;;;19.55;12.25;;;11.90;99.90;;;;;;6338291;22;20397;-87
2023/09/04 06:13:16;;;;;;;20.13;11.80;;;12.60;99.90;;;;;;6339199;22;20050;-87
2023/09/04 06:15:44;;;;;;;18.90;12.07;;;13.40;99.90;;;;;;6339820;22;20019;-86
2023/09/04 06:18:12;;;;;;;19.65;12.00;;;12.20;99.90;;;;;;6311434;22;20023;-85
2023/09/04 06:20:50;;;;;;;21.52;12.30;;;11.70;99.90;;;;;;6339158;22;20047;-84
2023/09/04 06:23:16;;;;;;;19.70;11.50;;;13.70;99.90;;;;;;6338250;22;20285;-84
2023/09/04 06:26:01;;;;;;;19.50;11.68;;;12.60;99.90;;;;;;6338387;22;20022;-84
2023/09/04 06:28:27;;;;;;;19.10;11.35;;;13.70;99.90;;;;;;6339650;22;20050;-85
2023/09/04 06:30:52;;;;;;;17.40;11.32;;;13.70;99.90;;;;;;6310712;22;20073;-85
2023/09/04 06:33:36;;;;;;;20.20;11.07;;;12.80;99.90;;;;;;6339384;22;20014;-85
2023/09/04 06:36:03;;;;;;;17.13;10.73;;;12.90;99.90;;;;;;6311295;22;20007;-84
2023/09/04 06:38:29;;;;;;;16.40;10.50;;;13.00;99.90;;;;;;6310672;22;20014;-85
2023/09/04 06:41:01;;;;;;;17.80;11.10;;;13.10;99.90;;;;;;6311714;22;20025;-85
2023/09/04 06:43:28;;;;;;;16.35;10.40;;;13.10;99.90;;;;;;6339308;22;20015;-85
2023/09/04 06:46:05;;;;;;;16.00;10.27;;;13.20;99.90;;;;;;6310511;22;20022;-86
2023/09/04 06:48:31;;;;;;;17.48;11.10;;;13.30;99.90;;;;;;6308243;22;20038;-85
2023/09/04 06:51:00;;;;;;;16.27;10.73;;;13.40;99.90;;;;;;6309129;22;20018;-85
2023/09/04 06:53:52;;;;;;;15.43;10.45;;;13.50;99.90;;;;;;6307667;22;20347;31
2023/09/04 06:57:07;;;;;;;15.82;10.43;;;13.60;99.90;;;;;;6214273;23;20400;-88
2023/09/04 06:59:33;;;;;;;18.80;10.60;;;13.70;99.90;;;;;;6212475;23;20345;-86
2023/09/04 07:01:59;;;;;;;15.77;10.30;;;13.90;99.90;;;;;;6213766;23;20024;-85
2023/09/04 07:07:41;;;;;;;15.05;9.52;;;14.10;99.90;;;;;;6212532;23;20032;-85
2023/09/04 07:10:07;;;;;;;15.93;9.65;;;14.10;99.90;;;;;;6215965;23;20016;-86
2023/09/04 07:12:35;;;;;;;15.25;9.65;;;14.30;99.90;;;;;;6213417;23;20115;-86
2023/09/04 07:15:18;;;;;;;15.10;9.77;;;14.40;99.90;;;;;;6215969;23;20445;-86
2023/09/04 07:17:46;;;;;;;15.25;9.55;;;14.40;99.90;;;;;;6213115;23;20016;-85
2023/09/04 07:20:13;;;;;;;16.35;9.48;;;14.60;99.90;;;;;;6214873;23;20087;-86
2023/09/04 07:23:24;;;;;;;14.88;9.30;;;14.60;99.90;;;;;;6215532;23;20012;-85
2023/09/04 07:26:05;;;;;;;14.30;9.23;;;14.80;99.90;;;;;;6212967;23;20016;-86
2023/09/04 07:31:18;;;;;;;15.13;9.25;;;15.00;99.90;;;;;;6246006;23;20020;-91
2023/09/04 07:37:14;;;;;;;15.68;9.98;;;15.30;99.90;;;;;;6304623;22;20029;-87
2023/09/04 07:39:40;;;;;;;14.07;9.35;;;15.10;99.90;;;;;;6278717;22;20095;-87
2023/09/04 07:42:56;;;;;;;15.65;9.65;;;15.40;99.90;;;;;;6278800;22;20046;-86
2023/09/04 07:52:03;;;;;;;14.20;8.75;;;15.90;99.90;;;;;;6336892;22;20037;-85
2023/09/04 08:00:13;;;;;;;15.30;7.93;;;15.80;99.90;;;;;;6337244;22;20113;-87
2023/09/04 08:03:28;;;;;;;13.90;8.48;;;16.20;99.90;;;;;;6333269;22;20102;-86
2023/09/04 08:06:34;;;;;;;13.20;7.60;;;16.30;99.90;;;;;;6181527;23;20047;-88
2023/09/04 08:09:27;;;;;;;13.55;7.65;;;16.50;99.90;;;;;;6156352;23;20057;-86
2023/09/04 08:12:08;;;;;;;12.55;8.20;;;16.70;99.90;;;;;;6182799;23;20031;-85
2023/09/04 08:14:52;;;;;;;12.20;6.97;;;16.80;99.90;;;;;;6157151;23;20020;-85
2023/09/04 08:17:40;;;;;;;13.88;7.38;;;16.90;99.90;;;;;;6154934;23;20069;-85
2023/09/04 08:20:21;;;;;;;12.20;7.15;;;17.10;99.90;;;;;;6180626;23;20027;-84
2023/09/04 08:23:56;;;;;;;11.00;6.97;;;16.90;99.90;;;;;;6252698;22;20020;-85
2023/09/04 08:27:31;;;;;;;11.30;7.00;;;17.40;99.90;;;;;;6273810;22;20027;-85
2023/09/04 08:29:59;;;;;;;13.48;7.05;;;17.50;99.90;;;;;;6273264;22;20344;-85
2023/09/04 08:32:44;;;;;;;10.35;6.22;;;17.80;99.90;;;;;;6274384;22;20015;-85
2023/09/04 08:35:31;;;;;;;10.38;5.78;;;17.90;99.90;;;;;;6271731;22;20415;-85
2023/09/04 08:42:33;;;;;;;12.20;5.68;;;18.00;99.90;;;;;;6275034;22;20049;-86
2023/09/04 08:45:12;;;;;;;9.38;5.07;;;17.60;99.90;;;;;;6275072;22;20016;-85
2023/09/04 08:50:43;;;;;;;9.25;4.95;;;18.60;99.90;;;;;;6292617;22;20339;-85
2023/09/04 08:59:37;;;;;;;9.20;4.45;;;19.00;99.90;;;;;;6281676;22;20035;-84
2023/09/04 09:02:42;;;;;;;9.73;4.80;;;18.60;99.90;;;;;;6278613;22;20019;-87
2023/09/04 09:05:40;;;;;;;;;;;;;;;;;;;;;
2023/09/04 09:16:35;;;;;;;10.38;4.40;;;19.50;99.90;;;;;;6127758;22;20030;-86
2023/09/04 09:20:00;;;;;;;9.15;3.95;;;19.70;99.90;;;;;;6306941;22;20448;-87
2023/09/04 09:33:20;;;;;;;8.38;3.80;;;20.30;99.90;;;;;;6307196;22;20023;-85
2023/09/04 09:59:22;;;;;;;9.60;3.80;;;21.10;99.90;;;;;;6070099;23;20030;-83
2023/09/04 10:02:31;;;;;;;9.25;3.25;;;21.40;99.90;;;;;;6093762;23;20023;-83
2023/09/04 10:04:57;;;;;;;8.93;3.60;;;21.40;99.90;;;;;;6094553;23;20494;-83
2023/09/04 10:11:10;;;;;;;7.72;3.20;;;21.70;99.90;;;;;;6095140;23;20021;-85
2023/09/04 10:31:32;;;;;;;7.80;3.35;;;22.50;99.90;;;;;;5942197;24;20025;-84
2023/09/04 10:38:09;;;;;;;10.68;3.10;;;22.90;99.90;;;;;;6263056;22;20081;-86
2023/09/04 10:44:43;;;;;;;8.98;3.20;;;23.40;99.90;;;;;;6221406;22;20027;-83
2023/09/04 10:47:13;;;;;;;8.30;3.65;;;23.30;99.90;;;;;;6306475;22;20015;-83
2023/09/04 11:17:15;;;;;;;7.82;2.80;;;24.40;99.90;;;;;;6222984;22;20031;-85
2023/09/04 11:19:53;;;;;;;9.40;2.83;;;24.60;99.90;;;;;;6245206;22;20018;-85
2023/09/04 11:22:33;;;;;;;7.53;2.75;;;24.80;99.90;;;;;;6310858;22;20072;-87
2023/09/04 11:24:59;;;;;;;8.65;2.88;;;24.60;99.90;;;;;;6338542;22;20018;-84
2023/09/04 11:31:09;;;;;;;7.40;2.80;;;25.00;99.90;;;;;;6217411;22;20057;-84
2023/09/04 11:33:38;;;;;;;7.72;2.80;;;24.90;99.90;;;;;;6255606;22;20077;-84
2023/09/04 11:43:01;;;;;;;6.40;2.45;;;25.10;99.90;;;;;;6292938;22;20439;-84
2023/09/04 11:45:31;;;;;;;6.88;2.60;;;25.40;99.90;;;;;;6279758;22;20490;-84
2023/09/04 11:48:33;;;;;;;7.22;2.35;;;25.30;99.90;;;;;;6279091;22;20494;-85
2023/09/04 11:51:37;;;;;;;7.32;2.40;;;25.50;99.90;;;;;;6212541;22;20011;-85
2023/09/04 12:52:09;;;;;;;7.70;2.30;;;27.30;97.20;;;;;;6245643;23;20404;-85
2023/09/04 13:02:13;;;;;;;6.60;2.30;;;28.10;98.30;;;;;;6183323;23;20428;-84
2023/09/04 13:08:15;;;;;;;6.30;2.30;;;27.80;96.70;;;;;;6158728;23;20370;-84
2023/09/04 13:10:53;;;;;;;6.63;2.40;;;27.70;99.00;;;;;;6158795;23;20071;-83
2023/09/04 13:13:22;;;;;;;5.57;2.20;;;27.60;97.90;;;;;;6183447;23;20017;-84
2023/09/04 13:15:50;;;;;;;8.02;2.60;;;27.40;97.60;;;;;;6220622;23;20024;-84
2023/09/04 13:18:15;;;;;;;6.72;2.65;;;27.70;98.10;;;;;;6218762;23;20023;-84
2023/09/04 13:21:48;;;;;;;7.07;2.38;;;27.70;98.30;;;;;;6247018;23;20020;-85
2023/09/04 13:24:31;;;;;;;;;;;;;;;;;;;;;
2023/09/04 13:27:31;;;;;;;6.53;2.50;;;27.90;96.80;;;;;;6200822;23;20024;-84
2023/09/04 13:31:18;;;;;;;6.10;2.20;;;28.20;97.50;;;;;;6246859;23;20012;-84
2023/09/04 13:37:51;;;;;;;7.07;2.50;;;28.40;96.00;;;;;;6234328;22;20048;-84
2023/09/04 13:40:39;;;;;;;7.18;2.35;;;28.30;95.90;;;;;;6275596;22;20391;-83
2023/09/04 13:44:01;;;;;;;6.75;2.35;;;28.30;95.50;;;;;;6273811;22;20466;-84
2023/09/04 13:46:59;;;;;;;6.78;2.38;;;28.50;94.80;;;;;;6186537;22;20015;-84
2023/09/04 13:49:33;;;;;;;7.22;2.22;;;28.30;94.50;;;;;;6308775;22;20023;-84
2023/09/04 13:52:53;;;;;;;6.43;2.20;;;28.60;96.50;;;;;;6281143;22;20090;-84
2023/09/04 13:55:55;;;;;;;6.75;2.28;;;28.60;94.20;;;;;;6217619;22;20313;-84
2023/09/04 13:59:28;;;;;;;6.93;2.20;;;28.50;92.60;;;;;;6138472;22;20019;-84
2023/09/04 14:02:00;;;;;;;7.32;2.20;;;28.60;95.10;;;;;;6306506;22;20023;-83
2023/09/04 14:05:00;;;;;;;6.93;2.50;;;28.40;93.70;;;;;;6281151;22;20011;-83
2023/09/04 14:07:59;;;;;;;7.15;2.15;;;28.40;93.50;;;;;;6211654;23;20020;-83
2023/09/04 14:10:40;;;;;;;6.10;2.25;;;28.60;94.10;;;;;;6213776;23;20017;-83
